createdAt,value
2023-08-19T00:01:17.991Z,4.10
2023-08-19T00:03:45.360Z,4.03
2023-08-19T00:06:31.525Z,4.00
2023-08-19T00:08:59.369Z,3.95
2023-08-19T00:11:26.338Z,3.67
2023-08-19T00:13:52.974Z,3.77
2023-08-19T00:16:19.870Z,3.38
2023-08-19T00:18:46.537Z,3.35
2023-08-19T00:21:13.120Z,3.05
2023-08-19T00:23:39.724Z,3.90
2023-08-19T00:26:06.530Z,3.60
2023-08-19T00:28:33.164Z,3.50
2023-08-19T00:31:00.131Z,3.88
2023-08-19T00:33:26.807Z,4.10
2023-08-19T00:35:53.596Z,4.10
2023-08-19T00:38:20.375Z,4.20
2023-08-19T00:40:47.693Z,4.20
2023-08-19T00:43:14.307Z,4.15
2023-08-19T00:45:46.125Z,3.92
2023-08-19T00:48:17.714Z,4.22
2023-08-19T00:50:45.737Z,4.30
2023-08-19T00:53:13.892Z,4.30
2023-08-19T00:55:43.633Z,4.25
2023-08-19T00:58:10.724Z,4.20
2023-08-19T01:00:37.688Z,4.50
2023-08-19T01:03:07.970Z,4.43
2023-08-19T01:05:53.845Z,4.05
2023-08-19T01:08:30.878Z,4.28
2023-08-19T01:11:34.599Z,3.90
2023-08-19T01:14:24.788Z,4.57
2023-08-19T01:16:54.544Z,4.40
2023-08-19T01:19:30.079Z,4.05
2023-08-19T01:22:03.228Z,4.30
2023-08-19T01:24:39.495Z,3.60
2023-08-19T01:27:08.310Z,4.00
2023-08-19T01:29:35.106Z,3.40
2023-08-19T01:32:05.199Z,3.80
2023-08-19T01:34:31.837Z,3.90
2023-08-19T01:37:08.589Z,3.72
2023-08-19T01:39:38.176Z,3.47
2023-08-19T01:42:05.794Z,3.43
2023-08-19T01:44:32.675Z,3.72
2023-08-19T01:47:13.399Z,4.10
2023-08-19T01:49:40.187Z,3.55
2023-08-19T01:52:06.836Z,3.95
2023-08-19T01:54:33.744Z,3.80
2023-08-19T01:57:00.379Z,4.35
2023-08-19T01:59:27.211Z,4.32
2023-08-19T02:01:54.108Z,3.67
2023-08-19T02:04:20.702Z,3.90
2023-08-19T02:06:47.630Z,3.63
2023-08-19T02:09:14.277Z,3.92
2023-08-19T02:11:41.160Z,4.13
2023-08-19T02:14:08.988Z,3.50
2023-08-19T02:16:35.614Z,3.83
2023-08-19T02:19:02.411Z,3.90
2023-08-19T02:21:29.010Z,3.90
2023-08-19T02:23:58.556Z,3.88
2023-08-19T02:26:25.173Z,3.78
2023-08-19T02:28:51.994Z,4.03
2023-08-19T02:31:18.607Z,4.37
2023-08-19T02:33:45.266Z,3.92
2023-08-19T02:36:13.498Z,4.57
2023-08-19T02:38:40.102Z,3.90
2023-08-19T02:41:06.718Z,3.78
2023-08-19T02:43:33.351Z,3.93
2023-08-19T02:46:00.060Z,4.00
2023-08-19T02:48:26.824Z,3.95
2023-08-19T02:50:55.063Z,3.53
2023-08-19T02:53:22.956Z,4.30
2023-08-19T02:55:55.491Z,3.50
2023-08-19T02:58:22.502Z,3.53
2023-08-19T03:00:56.458Z,3.83
2023-08-19T03:03:23.237Z,3.70
2023-08-19T03:05:49.923Z,3.88
2023-08-19T03:08:16.792Z,3.93
2023-08-19T03:10:43.730Z,4.25
2023-08-19T03:13:10.986Z,3.88
2023-08-19T03:15:38.961Z,3.83
2023-08-19T03:18:06.761Z,3.83
2023-08-19T03:20:36.585Z,3.70
2023-08-19T03:23:03.965Z,4.00
2023-08-19T03:25:30.545Z,4.45
2023-08-19T03:27:57.256Z,4.40
2023-08-19T03:30:23.974Z,4.15
2023-08-19T03:32:51.032Z,4.23
2023-08-19T03:35:17.693Z,4.07
2023-08-19T03:37:44.707Z,4.88
2023-08-19T03:40:11.644Z,4.35
2023-08-19T03:42:38.591Z,4.50
2023-08-19T03:45:05.809Z,4.30
2023-08-19T03:47:32.689Z,4.25
2023-08-19T03:49:59.553Z,4.72
2023-08-19T03:52:26.989Z,4.00
2023-08-19T03:54:53.669Z,4.22
2023-08-19T03:57:20.303Z,4.43
2023-08-19T03:59:50.815Z,4.40
2023-08-19T04:02:17.613Z,4.30
2023-08-19T04:05:00.812Z,4.65
2023-08-19T04:07:28.011Z,5.15
2023-08-19T04:09:56.438Z,4.47
2023-08-19T04:12:24.128Z,4.80
2023-08-19T04:14:51.330Z,5.07
2023-08-19T04:17:18.277Z,4.60
2023-08-19T04:19:44.951Z,4.40
2023-08-19T04:22:13.894Z,4.63
2023-08-19T04:24:40.880Z,4.47
2023-08-19T04:27:07.955Z,5.15
2023-08-19T04:29:34.667Z,5.05
2023-08-19T04:32:02.773Z,5.00
2023-08-19T04:34:32.874Z,4.70
2023-08-19T04:36:59.682Z,4.63
2023-08-19T04:39:26.543Z,4.90
2023-08-19T04:41:54.531Z,4.63
2023-08-19T04:44:21.148Z,4.40
2023-08-19T04:46:47.912Z,4.97
2023-08-19T04:49:14.514Z,5.38
2023-08-19T04:51:41.190Z,4.68
2023-08-19T04:54:07.982Z,5.13
2023-08-19T04:56:34.671Z,5.28
2023-08-19T04:59:01.718Z,5.20
2023-08-19T05:01:28.923Z,4.45
2023-08-19T05:03:56.096Z,4.75
2023-08-19T05:06:23.373Z,4.78
2023-08-19T05:08:50.319Z,4.95
2023-08-19T05:11:16.968Z,4.93
2023-08-19T05:13:46.309Z,4.35
2023-08-19T05:16:14.225Z,4.28
2023-08-19T05:18:40.934Z,4.38
2023-08-19T05:21:07.618Z,4.78
2023-08-19T05:23:34.244Z,4.20
2023-08-19T05:26:01.034Z,4.70
2023-08-19T05:28:28.303Z,7.45
2023-08-19T05:30:55.017Z,5.22
2023-08-19T05:33:21.956Z,5.70
2023-08-19T05:35:48.794Z,7.17
2023-08-19T05:38:15.649Z,6.80
2023-08-19T05:40:42.361Z,6.95
2023-08-19T05:43:09.056Z,6.30
2023-08-19T05:45:35.766Z,7.18
2023-08-19T05:48:02.447Z,7.30
2023-08-19T05:50:29.306Z,7.15
2023-08-19T05:52:55.947Z,7.80
2023-08-19T05:55:22.821Z,7.65
2023-08-19T05:57:49.448Z,7.97
2023-08-19T06:00:16.344Z,7.30
2023-08-19T06:02:44.164Z,7.15
2023-08-19T06:05:11.067Z,7.07
2023-08-19T06:07:38.825Z,7.25
2023-08-19T06:10:06.428Z,7.72
2023-08-19T06:12:33.105Z,7.77
2023-08-19T06:14:59.706Z,7.80
2023-08-19T06:17:26.386Z,8.13
2023-08-19T06:19:53.091Z,7.63
2023-08-19T06:22:19.914Z,8.30
2023-08-19T06:24:46.508Z,7.90
2023-08-19T06:27:13.212Z,7.72
2023-08-19T06:29:40.978Z,7.68
2023-08-19T06:32:08.176Z,8.02
2023-08-19T06:34:35.198Z,8.45
2023-08-19T06:37:04.456Z,8.70
2023-08-19T06:39:34.148Z,7.90
2023-08-19T06:42:03.458Z,8.35
2023-08-19T06:44:32.261Z,8.05
2023-08-19T06:47:00.870Z,7.82
2023-08-19T06:49:28.020Z,7.53
2023-08-19T06:51:55.052Z,7.60
2023-08-19T06:54:22.031Z,7.45
2023-08-19T06:57:00.187Z,7.65
2023-08-19T06:59:34.362Z,7.55
2023-08-19T07:02:04.024Z,7.20
2023-08-19T07:04:31.325Z,7.22
2023-08-19T07:07:00.442Z,7.45
2023-08-19T07:09:27.822Z,7.18
2023-08-19T07:11:56.397Z,7.25
2023-08-19T07:14:27.124Z,6.80
2023-08-19T07:16:56.546Z,6.72
2023-08-19T07:19:28.551Z,7.03
2023-08-19T07:21:57.005Z,6.55
2023-08-19T07:24:24.423Z,7.07
2023-08-19T07:26:51.664Z,6.90
2023-08-19T07:29:18.830Z,6.75
2023-08-19T07:31:48.481Z,6.80
2023-08-19T07:34:15.101Z,6.63
2023-08-19T07:36:43.402Z,6.75
2023-08-19T07:39:10.170Z,6.07
2023-08-19T07:41:36.960Z,6.35
2023-08-19T07:44:03.777Z,6.85
2023-08-19T07:46:31.283Z,6.18
2023-08-19T07:48:57.905Z,6.22
2023-08-19T07:51:24.919Z,6.27
2023-08-19T07:53:51.664Z,6.47
2023-08-19T07:56:18.649Z,6.85
2023-08-19T07:58:46.063Z,7.28
2023-08-19T08:01:12.783Z,6.63
2023-08-19T08:03:40.830Z,7.87
2023-08-19T08:06:07.466Z,6.90
2023-08-19T08:08:34.060Z,6.78
2023-08-19T08:11:01.121Z,5.60
2023-08-19T08:13:27.753Z,5.63
2023-08-19T08:15:54.731Z,5.73
2023-08-19T08:18:21.531Z,5.82
2023-08-19T08:20:48.172Z,6.25
2023-08-19T08:23:15.032Z,5.85
2023-08-19T08:25:42.189Z,6.32
2023-08-19T08:28:08.796Z,6.20
2023-08-19T08:30:35.472Z,5.53
2023-08-19T08:33:04.226Z,5.43
2023-08-19T08:35:31.512Z,6.30
2023-08-19T08:37:58.197Z,6.18
2023-08-19T08:40:24.866Z,5.63
2023-08-19T08:42:52.547Z,5.63
2023-08-19T08:45:21.320Z,5.63
2023-08-19T08:47:48.894Z,5.45
2023-08-19T08:50:16.366Z,5.40
2023-08-19T08:52:43.392Z,5.33
2023-08-19T08:55:12.102Z,5.47
2023-08-19T08:57:38.764Z,5.38
2023-08-19T09:00:07.470Z,5.72
2023-08-19T09:02:35.538Z,5.60
2023-08-19T09:05:07.373Z,5.37
2023-08-19T09:07:40.213Z,5.70
2023-08-19T09:10:17.588Z,6.18
2023-08-19T09:12:46.940Z,5.57
2023-08-19T09:15:15.457Z,4.57
2023-08-19T09:17:43.369Z,5.10
2023-08-19T09:20:10.520Z,5.05
2023-08-19T09:22:39.536Z,5.32
2023-08-19T09:25:15.508Z,5.32
2023-08-19T09:27:43.185Z,4.97
2023-08-19T09:30:14.935Z,4.67
2023-08-19T09:32:42.705Z,4.97
2023-08-19T09:35:12.980Z,4.72
2023-08-19T09:37:41.524Z,4.78
2023-08-19T09:40:19.514Z,5.28
2023-08-19T09:42:50.387Z,5.23
2023-08-19T09:45:19.520Z,5.00
2023-08-19T09:47:48.620Z,5.05
2023-08-19T09:50:16.679Z,5.03
2023-08-19T09:52:54.163Z,5.05
2023-08-19T09:55:31.805Z,4.87
2023-08-19T09:57:59.211Z,4.65
2023-08-19T10:00:25.836Z,5.22
2023-08-19T10:02:52.806Z,5.03
2023-08-19T10:05:20.301Z,4.82
2023-08-19T10:07:54.737Z,4.83
2023-08-19T10:10:22.503Z,4.93
2023-08-19T10:12:52.512Z,5.25
2023-08-19T10:15:21.338Z,5.15
2023-08-19T10:17:52.664Z,4.95
2023-08-19T10:20:23.630Z,4.37
2023-08-19T10:22:55.198Z,5.00
2023-08-19T10:25:22.901Z,5.03
2023-08-19T10:27:49.837Z,4.75
2023-08-19T10:30:25.786Z,4.50
2023-08-19T10:32:52.722Z,4.77
2023-08-19T10:35:19.602Z,4.75
2023-08-19T10:37:52.607Z,4.40
2023-08-19T10:40:22.739Z,4.85
2023-08-19T10:42:58.368Z,4.82
2023-08-19T10:45:31.817Z,4.77
2023-08-19T10:47:59.805Z,4.43
2023-08-19T10:50:26.964Z,4.32
2023-08-19T10:53:04.945Z,4.13
2023-08-19T10:56:12.741Z,4.20
2023-08-19T10:58:41.062Z,3.20
2023-08-19T11:01:07.722Z,3.40
2023-08-19T11:03:34.332Z,3.88
2023-08-19T11:06:06.911Z,4.10
2023-08-19T11:08:44.829Z,3.88
2023-08-19T11:11:18.171Z,3.53
2023-08-19T11:13:45.270Z,4.13
2023-08-19T11:16:11.885Z,4.05
2023-08-19T11:18:42.430Z,3.60
2023-08-19T11:21:09.165Z,3.60
2023-08-19T11:23:35.778Z,3.40
2023-08-19T11:26:03.224Z,3.63
2023-08-19T11:28:30.538Z,4.03
2023-08-19T11:30:57.389Z,3.45
2023-08-19T11:33:27.783Z,3.55
2023-08-19T11:35:54.656Z,3.33
2023-08-19T11:38:21.333Z,3.35
2023-08-19T11:40:53.028Z,3.90
2023-08-19T11:43:25.877Z,3.17
2023-08-19T11:45:53.926Z,3.63
2023-08-19T11:48:20.725Z,3.73
2023-08-19T11:50:51.860Z,3.58
2023-08-19T11:53:23.669Z,3.38
2023-08-19T11:55:54.092Z,3.45
2023-08-19T11:58:21.522Z,4.30
2023-08-19T12:00:48.265Z,4.17
2023-08-19T12:03:18.136Z,4.10
2023-08-19T12:05:45.855Z,3.25
2023-08-19T12:08:32.945Z,3.13
2023-08-19T12:11:00.156Z,3.30
2023-08-19T12:13:33.135Z,3.17
2023-08-19T12:16:01.373Z,3.30
2023-08-19T12:18:32.953Z,3.67
2023-08-19T12:21:00.944Z,3.33
2023-08-19T12:23:27.951Z,3.78
2023-08-19T12:25:56.938Z,3.93
2023-08-19T12:28:24.631Z,3.17
2023-08-19T12:30:54.107Z,3.92
2023-08-19T12:33:22.101Z,3.55
2023-08-19T12:35:59.382Z,4.07
2023-08-19T12:38:32.889Z,3.20
2023-08-19T12:40:59.547Z,3.55
2023-08-19T12:43:26.154Z,3.85
2023-08-19T12:45:53.352Z,3.13
2023-08-19T12:48:19.967Z,3.40
2023-08-19T12:50:46.747Z,2.93
2023-08-19T12:53:13.356Z,3.15
2023-08-19T12:55:40.037Z,3.92
2023-08-19T12:58:06.737Z,3.47
2023-08-19T13:00:33.634Z,3.17
2023-08-19T13:03:00.336Z,3.27
2023-08-19T13:05:27.084Z,3.05
2023-08-19T13:07:56.569Z,3.25
2023-08-19T13:10:23.235Z,3.05
2023-08-19T13:12:53.227Z,3.53
2023-08-19T13:15:20.356Z,3.53
2023-08-19T13:17:47.148Z,3.20
2023-08-19T13:20:16.098Z,3.92
2023-08-19T13:22:43.070Z,3.70
2023-08-19T13:25:09.974Z,3.45
2023-08-19T13:27:36.622Z,3.23
2023-08-19T13:30:07.043Z,3.30
2023-08-19T13:32:34.351Z,2.95
2023-08-19T13:35:01.164Z,3.05
2023-08-19T13:37:27.778Z,2.63
2023-08-19T13:39:54.398Z,3.00
2023-08-19T13:42:21.430Z,2.85
2023-08-19T13:44:48.054Z,3.45
2023-08-19T13:47:14.716Z,3.25
2023-08-19T13:49:41.566Z,3.50
2023-08-19T13:52:35.205Z,2.83
2023-08-19T13:55:01.768Z,2.70
2023-08-19T13:57:28.569Z,3.28
2023-08-19T13:59:55.303Z,2.83
2023-08-19T14:02:22.104Z,2.90
2023-08-19T14:04:48.716Z,3.07
2023-08-19T14:07:15.302Z,2.90
2023-08-19T14:09:42.002Z,3.00
2023-08-19T14:12:08.836Z,3.05
2023-08-19T14:14:36.125Z,2.97
2023-08-19T14:17:04.391Z,2.80
2023-08-19T14:19:31.238Z,2.63
2023-08-19T14:21:57.794Z,2.90
2023-08-19T14:24:24.485Z,2.53
2023-08-19T14:26:52.671Z,3.20
2023-08-19T14:29:19.563Z,3.00
2023-08-19T14:31:46.270Z,2.58
2023-08-19T14:34:13.140Z,2.60
2023-08-19T14:36:39.733Z,3.08
2023-08-19T14:39:06.367Z,2.45
2023-08-19T14:41:33.101Z,2.77
2023-08-19T14:43:59.886Z,3.33
2023-08-19T14:46:26.674Z,2.95
2023-08-19T14:48:53.387Z,2.70
2023-08-19T14:51:21.354Z,3.15
2023-08-19T14:53:48.151Z,2.63
2023-08-19T14:56:15.146Z,3.25
2023-08-19T14:58:41.719Z,2.95
2023-08-19T15:01:08.476Z,3.13
2023-08-19T15:03:35.268Z,3.20
2023-08-19T15:06:03.712Z,2.90
2023-08-19T15:08:31.747Z,3.03
2023-08-19T15:10:58.387Z,3.58
2023-08-19T15:13:24.979Z,3.63
2023-08-19T15:15:51.685Z,3.55
2023-08-19T15:18:18.379Z,3.03
2023-08-19T15:20:46.693Z,2.88
2023-08-19T15:23:16.433Z,3.03
2023-08-19T15:25:43.003Z,3.70
2023-08-19T15:28:09.690Z,3.58
2023-08-19T15:30:36.270Z,3.10
2023-08-19T15:33:03.001Z,3.17
2023-08-19T15:35:29.629Z,3.10
2023-08-19T15:37:56.472Z,3.40
2023-08-19T15:40:23.099Z,3.60
2023-08-19T15:42:49.711Z,3.07
2023-08-19T15:45:16.607Z,3.25
2023-08-19T15:47:43.991Z,3.20
2023-08-19T15:50:11.170Z,2.90
2023-08-19T15:52:38.784Z,3.13
2023-08-19T15:55:05.807Z,3.57
2023-08-19T15:57:32.940Z,3.22
2023-08-19T15:59:59.892Z,3.28
2023-08-19T16:02:26.660Z,3.40
2023-08-19T16:04:53.730Z,3.78
2023-08-19T16:07:21.725Z,3.40
2023-08-19T16:09:48.348Z,3.33
2023-08-19T16:12:15.295Z,3.40
2023-08-19T16:14:41.972Z,3.45
2023-08-19T16:17:08.678Z,3.33
2023-08-19T16:19:35.466Z,2.83
2023-08-19T16:22:02.115Z,3.15
2023-08-19T16:24:28.726Z,3.97
2023-08-19T16:26:57.043Z,3.17
2023-08-19T16:29:23.737Z,3.47
2023-08-19T16:31:51.807Z,3.40
2023-08-19T16:34:18.569Z,3.30
2023-08-19T16:36:45.337Z,3.72
2023-08-19T16:39:12.215Z,3.65
2023-08-19T16:41:38.852Z,4.00
2023-08-19T16:44:05.963Z,3.20
2023-08-19T16:46:32.621Z,3.50
2023-08-19T16:49:00.039Z,3.67
2023-08-19T16:51:26.681Z,3.60
2023-08-19T16:53:53.665Z,3.70
2023-08-19T16:56:21.790Z,3.87
2023-08-19T16:58:48.406Z,3.60
2023-08-19T17:01:15.284Z,4.03
2023-08-19T17:03:42.287Z,3.38
2023-08-19T17:06:09.011Z,3.53
2023-08-19T17:08:35.762Z,3.50
2023-08-19T17:11:02.701Z,3.30
2023-08-19T17:13:29.761Z,4.15
2023-08-19T17:15:58.060Z,3.15
2023-08-19T17:18:26.302Z,3.38
2023-08-19T17:20:54.250Z,3.50
2023-08-19T17:23:21.473Z,3.55
2023-08-19T17:25:48.115Z,3.97
2023-08-19T17:28:14.929Z,3.25
2023-08-19T17:30:41.842Z,4.15
2023-08-19T17:33:08.744Z,4.13
2023-08-19T17:35:36.874Z,3.92
2023-08-19T17:38:05.373Z,4.00
2023-08-19T17:40:33.380Z,3.63
2023-08-19T17:43:00.031Z,4.10
2023-08-19T17:45:27.182Z,3.60
2023-08-19T17:47:55.427Z,4.00
2023-08-19T17:50:22.490Z,3.72
2023-08-19T17:52:49.315Z,3.92
2023-08-19T17:55:16.551Z,4.30
2023-08-19T17:57:44.575Z,4.47
2023-08-19T18:00:11.799Z,3.88
2023-08-19T18:02:38.812Z,4.43
2023-08-19T18:05:05.724Z,3.53
2023-08-19T18:07:33.162Z,4.15
2023-08-19T18:10:01.579Z,3.80
2023-08-19T18:12:28.427Z,4.07
2023-08-19T18:14:55.017Z,4.00
2023-08-19T18:17:21.683Z,3.95
2023-08-19T18:19:48.665Z,4.35
2023-08-19T18:22:15.614Z,4.17
2023-08-19T18:24:44.257Z,4.00
2023-08-19T18:27:11.003Z,3.88
2023-08-19T18:29:39.862Z,4.40
2023-08-19T18:32:07.543Z,3.65
2023-08-19T18:34:34.643Z,3.73
2023-08-19T18:37:03.131Z,4.05
2023-08-19T18:39:29.723Z,3.92
2023-08-19T18:41:56.441Z,3.63
2023-08-19T18:44:23.503Z,3.78
2023-08-19T18:46:50.130Z,3.80
2023-08-19T18:49:16.757Z,4.30
2023-08-19T18:51:44.526Z,3.75
2023-08-19T18:54:11.325Z,3.70
2023-08-19T18:56:37.994Z,10.60
2023-08-19T18:59:04.729Z,9.50
2023-08-19T19:01:31.912Z,9.55
2023-08-19T19:03:59.507Z,13.38
2023-08-19T19:06:26.286Z,9.73
2023-08-19T19:08:53.271Z,13.60
2023-08-19T19:11:19.951Z,17.93
2023-08-19T19:13:46.558Z,7.80
2023-08-19T19:16:15.123Z,6.07
2023-08-19T19:18:41.840Z,6.18
2023-08-19T19:21:08.553Z,5.38
2023-08-19T19:23:35.205Z,4.63
2023-08-19T19:26:03.646Z,4.50
2023-08-19T19:28:31.107Z,5.10
2023-08-19T19:30:57.871Z,4.18
2023-08-19T19:33:25.677Z,4.35
2023-08-19T19:35:52.385Z,4.57
2023-08-19T19:38:19.343Z,4.75
2023-08-19T19:40:46.240Z,4.30
2023-08-19T19:43:13.238Z,4.55
2023-08-19T19:45:40.387Z,5.15
2023-08-19T19:48:07.367Z,4.47
2023-08-19T19:50:35.246Z,4.60
2023-08-19T19:53:02.074Z,5.00
2023-08-19T19:55:28.817Z,4.78
2023-08-19T19:57:55.533Z,5.00
2023-08-19T20:00:22.185Z,5.03
2023-08-19T20:02:48.932Z,4.95
2023-08-19T20:05:15.657Z,5.05
2023-08-19T20:07:42.483Z,5.10
2023-08-19T20:10:25.251Z,5.18
2023-08-19T20:12:54.336Z,4.43
2023-08-19T20:15:21.014Z,4.50
2023-08-19T20:17:52.485Z,5.10
2023-08-19T20:20:20.053Z,5.00
2023-08-19T20:22:50.116Z,4.90
2023-08-19T20:25:17.351Z,5.00
2023-08-19T20:27:44.546Z,4.68
2023-08-19T20:30:11.540Z,5.07
2023-08-19T20:32:39.615Z,5.90
2023-08-19T20:35:07.189Z,5.72
2023-08-19T20:37:34.031Z,5.37
2023-08-19T20:40:01.017Z,5.50
2023-08-19T20:42:27.682Z,5.53
2023-08-19T20:44:54.691Z,5.07
2023-08-19T20:47:21.352Z,4.35
2023-08-19T20:49:48.035Z,5.27
2023-08-19T20:52:14.703Z,4.55
2023-08-19T20:54:41.582Z,5.20
2023-08-19T20:57:08.417Z,5.20
2023-08-19T20:59:35.073Z,4.90
2023-08-19T21:02:01.944Z,4.13
2023-08-19T21:04:28.607Z,4.65
2023-08-19T21:06:55.336Z,4.70
2023-08-19T21:09:21.993Z,4.65
2023-08-19T21:11:48.691Z,4.70
2023-08-19T21:14:15.310Z,4.77
2023-08-19T21:16:41.946Z,4.63
2023-08-19T21:19:08.854Z,5.30
2023-08-19T21:21:35.522Z,5.05
2023-08-19T21:24:02.148Z,4.63
2023-08-19T21:26:28.818Z,4.37
2023-08-19T21:28:55.481Z,4.20
2023-08-19T21:31:22.207Z,4.50
2023-08-19T21:33:49.441Z,4.50
2023-08-19T21:36:16.146Z,4.70
2023-08-19T21:38:42.815Z,4.50
2023-08-19T21:41:11.456Z,4.85
2023-08-19T21:43:38.156Z,4.72
2023-08-19T21:46:04.963Z,4.88
2023-08-19T21:48:31.689Z,5.25
2023-08-19T21:50:58.557Z,5.17
2023-08-19T21:53:25.204Z,4.60
2023-08-19T21:55:51.940Z,4.82
2023-08-19T21:58:18.668Z,5.13
2023-08-19T22:00:45.366Z,5.15
2023-08-19T22:03:12.144Z,4.90
2023-08-19T22:05:49.010Z,5.07
2023-08-19T22:08:17.287Z,5.35
2023-08-19T22:10:45.423Z,4.70
2023-08-19T22:13:13.239Z,5.22
2023-08-19T22:15:40.118Z,4.90
2023-08-19T22:18:07.365Z,5.20
2023-08-19T22:23:04.673Z,5.35
2023-08-19T22:25:32.571Z,4.78
2023-08-19T22:27:59.572Z,5.10
2023-08-19T22:30:26.463Z,5.63
2023-08-19T22:32:53.320Z,4.78
2023-08-19T22:35:20.231Z,5.10
2023-08-19T22:37:47.040Z,4.90
2023-08-19T22:40:13.666Z,4.97
2023-08-19T22:42:40.355Z,4.93
2023-08-19T22:45:09.739Z,5.22
2023-08-19T22:47:37.082Z,5.25
2023-08-19T22:50:05.569Z,5.45
2023-08-19T22:52:32.346Z,5.13
2023-08-19T22:54:59.610Z,5.03
2023-08-19T22:57:26.601Z,5.38
2023-08-19T22:59:53.435Z,5.32
2023-08-19T23:02:20.084Z,5.60
2023-08-19T23:04:46.795Z,4.80
2023-08-19T23:07:13.475Z,5.20
2023-08-19T23:09:40.103Z,5.50
2023-08-19T23:12:09.444Z,5.85
2023-08-19T23:14:36.975Z,5.13
2023-08-19T23:17:03.800Z,5.63
2023-08-19T23:19:32.510Z,5.22
2023-08-19T23:21:59.213Z,5.65
2023-08-19T23:24:25.873Z,4.85
2023-08-19T23:26:52.588Z,5.30
2023-08-19T23:29:19.309Z,5.23
2023-08-19T23:31:45.976Z,4.80
2023-08-19T23:34:12.696Z,4.78
2023-08-19T23:36:39.603Z,5.57
2023-08-19T23:39:08.718Z,5.18
2023-08-19T23:41:36.399Z,5.63
2023-08-19T23:44:04.196Z,4.80
2023-08-19T23:46:30.783Z,4.90
2023-08-19T23:48:57.668Z,4.97
2023-08-19T23:51:25.476Z,5.35
2023-08-19T23:53:57.240Z,4.80
2023-08-19T23:56:24.234Z,4.85
2023-08-19T23:58:51.282Z,5.72
